Time;durP1;ratioP1;P1;durP2;ratioP2;P2;SDS_P1;SDS_P2;PMS_P1;PMS_P2;Temp;Humidity;BMP_temperature;BMP_pressure;BME280_temperature;BME280_humidity;BME280_pressure;Samples;Min_cycle;Max_cycle;Signal;HPM_P1;HPM_P2
2023/07/15 00:02:59;;;;;;;8.80;4.30;;;;;;;14.32;100.00;99962.23;109064;1257;75346;-65
2023/07/15 00:05:49;;;;;;;9.60;4.10;;;;;;;14.32;100.00;99962.77;109029;1257;68037;-66
2023/07/15 00:08:37;;;;;;;11.30;4.20;;;;;;;14.33;100.00;99961.13;108959;1257;71591;-65
2023/07/15 00:11:41;;;;;;;8.70;4.00;;;;;;;14.33;100.00;99957.20;109111;1258;59715;-67
2023/07/15 00:14:30;;;;;;;10.50;4.00;;;;;;;14.34;100.00;99959.80;109007;1257;58747;-65
2023/07/15 00:17:18;;;;;;;8.10;3.80;;;;;;;14.31;100.00;99959.27;109035;1258;71705;-66
2023/07/15 00:20:14;;;;;;;11.10;4.10;;;;;;;14.31;100.00;99957.13;109077;1257;66333;-63
2023/07/15 00:23:18;;;;;;;10.00;3.90;;;;;;;14.33;100.00;99953.06;109111;1257;72170;-64
2023/07/15 00:26:07;;;;;;;8.70;4.10;;;;;;;14.34;100.00;99951.55;109038;1257;59206;-64
2023/07/15 00:28:57;;;;;;;7.50;3.60;;;;;;;14.34;100.00;99952.46;108842;1257;283798;-64
2023/07/15 00:31:47;;;;;;;9.30;3.90;;;;;;;14.32;100.00;99950.65;108948;1257;74224;-63
2023/07/15 00:34:35;;;;;;;10.90;4.00;;;;;;;14.31;100.00;99956.06;109051;1257;67883;-64
2023/07/15 00:37:23;;;;;;;8.00;3.50;;;;;;;14.30;100.00;99953.70;108987;1257;72719;-65
2023/07/15 00:40:15;;;;;;;10.70;4.30;;;;;;;14.27;100.00;99952.70;109109;1257;59324;-63
2023/07/15 00:47:14;;;;;;;8.60;3.70;;;;;;;14.24;100.00;99957.13;109086;1257;73144;-65
2023/07/15 00:50:03;;;;;;;10.20;4.00;;;;;;;14.24;100.00;99950.14;109024;1257;67857;-65
2023/07/15 00:52:51;;;;;;;7.50;3.80;;;;;;;14.23;100.00;99950.37;108916;1257;73731;-65
2023/07/15 00:55:39;;;;;;;9.90;3.70;;;;;;;14.22;100.00;99947.27;109025;1257;57512;-63
2023/07/15 00:58:27;;;;;;;9.40;3.30;;;;;;;14.21;100.00;99950.56;108945;1257;61188;-63
2023/07/15 01:01:15;;;;;;;10.60;3.90;;;;;;;14.21;100.00;99952.04;108877;1257;73499;-66
2023/07/15 01:04:03;;;;;;;9.10;3.50;;;;;;;14.18;100.00;99955.14;109002;1257;68913;-64
2023/07/15 01:06:53;;;;;;;9.10;3.80;;;;;;;14.17;100.00;99964.35;108956;1257;73935;-65
2023/07/15 01:09:45;;;;;;;8.70;4.00;;;;;;;14.16;100.00;99966.11;108937;1257;59386;-65
2023/07/15 01:12:35;;;;;;;8.90;3.90;;;;;;;14.13;100.00;99965.41;108922;1257;60308;-64
2023/07/15 01:15:23;;;;;;;9.10;4.20;;;;;;;14.12;100.00;99966.63;108910;1257;73574;-65
2023/07/15 01:18:11;;;;;;;9.70;4.00;;;;;;;14.10;100.00;99963.41;109011;1257;68947;-63
2023/07/15 01:20:59;;;;;;;7.50;3.30;;;;;;;14.09;100.00;99967.25;109213;1257;72634;-64
2023/07/15 01:23:48;;;;;;;9.40;3.50;;;;;;;14.08;100.00;99968.17;108834;1262;59690;-65
2023/07/15 01:26:38;;;;;;;7.90;3.70;;;;;;;14.08;100.00;99964.50;108801;1262;58594;-63
2023/07/15 01:29:26;;;;;;;10.50;3.80;;;;;;;14.08;100.00;99966.09;108798;1262;73114;-64
2023/07/15 01:32:14;;;;;;;8.80;3.40;;;;;;;14.08;100.00;99969.45;108801;1264;67933;-64
2023/07/15 01:35:04;;;;;;;7.70;3.60;;;;;;;14.06;100.00;99965.20;108816;1262;72774;-62
2023/07/15 01:37:52;;;;;;;8.10;3.40;;;;;;;14.06;100.00;99962.23;108830;1262;58006;-63
2023/07/15 01:40:42;;;;;;;7.90;3.60;;;;;;;14.05;100.00;99965.86;108896;1262;59263;-64
2023/07/15 01:43:30;;;;;;;8.50;3.60;;;;;;;14.03;100.00;99960.27;108781;1262;73083;-64
2023/07/15 01:46:18;;;;;;;10.40;3.30;;;;;;;14.04;100.00;99956.48;108778;1262;67974;-64
2023/07/15 01:49:08;;;;;;;8.60;3.20;;;;;;;14.03;100.00;99951.61;108872;1262;72754;-63
2023/07/15 01:51:56;;;;;;;9.70;3.70;;;;;;;14.05;100.00;99955.34;108782;1262;58328;-63
2023/07/15 01:54:44;;;;;;;12.60;3.50;;;;;;;14.07;100.00;99949.10;108943;1257;61086;-64
2023/07/15 01:57:34;;;;;;;7.40;2.90;;;;;;;14.09;100.00;99947.45;109007;1257;73180;-63
2023/07/15 02:00:23;;;;;;;10.30;3.40;;;;;;;14.12;100.00;99942.15;109008;1257;67945;-65
2023/07/15 02:03:11;;;;;;;9.30;3.70;;;;;;;14.16;100.00;99943.27;108941;1257;72595;-63
2023/07/15 02:05:59;;;;;;;9.10;4.00;;;;;;;14.18;100.00;99942.49;109063;1257;57301;-62
2023/07/15 02:08:48;;;;;;;8.30;3.30;;;;;;;14.20;100.00;99944.61;109126;1257;59365;-63
2023/07/15 02:11:37;;;;;;;8.90;2.90;;;;;;;14.22;100.00;99944.80;109009;1257;74207;-63
2023/07/15 02:14:25;;;;;;;9.90;2.80;;;;;;;14.25;100.00;99946.84;109129;1257;68535;-64
2023/07/15 02:17:13;;;;;;;7.90;2.70;;;;;;;14.29;99.89;99941.81;109012;1260;72697;-62
2023/07/15 02:20:05;;;;;;;7.80;2.90;;;;;;;14.32;99.73;99946.14;108842;1259;59633;-63
2023/07/15 02:22:53;;;;;;;7.10;2.80;;;;;;;14.37;99.65;99944.68;109005;1259;59105;-62
2023/07/15 02:25:40;;;;;;;9.60;2.30;;;;;;;14.40;99.30;99942.90;108986;1258;72975;-61
2023/07/15 02:28:28;;;;;;;8.50;2.50;;;;;;;14.44;99.13;99945.33;108984;1258;67590;-62
2023/07/15 02:31:16;;;;;;;6.60;2.80;;;;;;;14.47;98.69;99944.33;108974;1259;72807;-62
2023/07/15 02:34:07;;;;;;;6.80;2.50;;;;;;;14.50;98.43;99945.00;108988;1259;58355;-62
2023/07/15 02:36:55;;;;;;;9.00;2.60;;;;;;;14.53;98.20;99946.20;109068;1259;58872;-62
2023/07/15 02:39:43;;;;;;;7.30;2.60;;;;;;;14.55;97.95;99944.49;108923;1258;74363;-62
2023/07/15 02:42:36;;;;;;;6.20;2.30;;;;;;;14.58;97.65;99945.63;109101;1258;68637;-65
2023/07/15 02:45:24;;;;;;;6.40;2.20;;;;;;;14.62;97.44;99942.98;108947;1258;71298;-62
2023/07/15 02:48:12;;;;;;;7.60;2.20;;;;;;;14.65;97.24;99945.14;109098;1258;57730;-64
2023/07/15 02:50:59;;;;;;;8.70;3.20;;;;;;;14.67;96.84;99946.27;108901;1258;61423;-64
2023/07/15 02:53:47;;;;;;;7.10;2.30;;;;;;;14.69;96.78;99936.09;108818;1259;74139;-63
2023/07/15 02:56:35;;;;;;;8.00;2.40;;;;;;;14.72;96.70;99933.11;109080;1258;68012;-63
2023/07/15 02:59:23;;;;;;;7.20;2.40;;;;;;;14.74;96.24;99937.02;109070;1258;73724;-63
2023/07/15 03:02:11;;;;;;;7.00;2.30;;;;;;;14.77;95.92;99933.70;108727;1263;58364;-63
2023/07/15 03:05:00;;;;;;;8.50;2.50;;;;;;;14.81;95.52;99933.31;108771;1264;60683;-66
2023/07/15 03:07:49;;;;;;;6.80;2.20;;;;;;;14.87;95.50;99935.19;108857;1262;73072;-65
2023/07/15 03:10:38;;;;;;;7.80;2.20;;;;;;;14.93;94.91;99931.01;108801;1262;67696;-63
2023/07/15 03:13:26;;;;;;;7.00;2.40;;;;;;;15.00;94.39;99932.64;108762;1262;72742;-63
2023/07/15 03:16:15;;;;;;;6.10;1.90;;;;;;;15.07;94.17;99927.38;108712;1262;57734;-65
2023/07/15 03:19:03;;;;;;;6.50;2.00;;;;;;;15.17;93.92;99928.91;108854;1261;60296;-67
2023/07/15 03:21:53;;;;;;;9.90;2.40;;;;;;;15.25;93.56;99930.42;108843;1262;71703;-64
2023/07/15 03:24:41;;;;;;;6.90;2.20;;;;;;;15.31;93.18;99927.27;108830;1260;67697;-63
2023/07/15 03:27:31;;;;;;;5.50;1.80;;;;;;;15.40;92.47;99919.88;108830;1260;72586;-62
2023/07/15 03:30:21;;;;;;;7.10;2.30;;;;;;;15.47;91.92;99920.88;108820;1260;60332;-63
2023/07/15 03:33:10;;;;;;;7.70;2.50;;;;;;;15.55;91.80;99910.59;108907;1259;61166;-63
2023/07/15 03:36:01;;;;;;;6.60;2.20;;;;;;;15.64;91.37;99912.76;108991;1259;73098;-63
2023/07/15 03:38:49;;;;;;;6.40;2.10;;;;;;;15.71;91.03;99911.70;108907;1259;68029;-64
2023/07/15 03:41:37;;;;;;;8.50;2.50;;;;;;;15.77;90.78;99911.84;109010;1258;71238;-64
2023/07/15 03:44:25;;;;;;;8.80;2.50;;;;;;;15.82;90.16;99906.13;109004;1258;58566;-64
2023/07/15 03:47:13;;;;;;;6.20;2.10;;;;;;;15.88;89.56;99906.95;109076;1258;60380;-63
2023/07/15 03:50:02;;;;;;;8.10;2.30;;;;;;;15.97;89.30;99900.08;108995;1258;73061;-64
2023/07/15 03:52:50;;;;;;;8.80;2.30;;;;;;;16.07;88.62;99898.20;108994;1258;67734;-62
2023/07/15 03:55:38;;;;;;;6.30;2.00;;;;;;;16.14;87.99;99896.78;108977;1259;73692;-63
2023/07/15 03:58:26;;;;;;;7.80;2.40;;;;;;;16.22;87.63;99894.84;109061;1258;58667;-63
2023/07/15 04:01:14;;;;;;;6.70;2.40;;;;;;;16.31;86.98;99892.36;108942;1258;60313;-63
2023/07/15 04:04:08;;;;;;;6.80;1.80;;;;;;;16.41;85.38;99898.65;109043;1258;72110;-63
2023/07/15 04:06:59;;;;;;;7.00;2.20;;;;;;;16.51;84.91;99899.35;108990;1259;67706;-64
2023/07/15 04:09:46;;;;;;;7.80;2.30;;;;;;;16.60;84.04;99892.48;109033;1258;72739;-63
2023/07/15 04:12:36;;;;;;;7.80;2.20;;;;;;;16.68;83.35;99894.45;108985;1259;57765;-63
2023/07/15 04:15:24;;;;;;;7.20;1.90;;;;;;;16.74;82.21;99887.25;109003;1258;60257;-63
2023/07/15 04:18:12;;;;;;;7.40;2.00;;;;;;;16.79;82.08;99888.70;109015;1258;72087;-64
2023/07/15 04:21:01;;;;;;;7.30;1.90;;;;;;;16.84;82.00;99886.98;108914;1258;68395;-64
2023/07/15 04:23:49;;;;;;;6.10;1.90;;;;;;;16.88;81.64;99887.27;109085;1258;71470;-63
2023/07/15 04:26:37;;;;;;;6.90;1.80;;;;;;;16.94;81.64;99887.56;109072;1259;58297;-64
2023/07/15 04:29:24;;;;;;;6.10;2.00;;;;;;;17.00;80.96;99889.39;109003;1259;60406;-65
2023/07/15 04:32:13;;;;;;;8.70;2.00;;;;;;;17.08;80.71;99888.52;109069;1258;73074;-63
2023/07/15 04:35:02;;;;;;;6.80;2.10;;;;;;;17.14;80.49;99891.80;108991;1258;66415;-65
2023/07/15 04:37:50;;;;;;;6.90;1.80;;;;;;;17.23;80.00;99895.88;108878;1258;71339;-66
2023/07/15 04:40:39;;;;;;;7.20;2.20;;;;;;;17.33;79.74;99895.11;108938;1259;58202;-65
2023/07/15 04:43:27;;;;;;;6.20;1.90;;;;;;;17.47;79.28;99897.86;108922;1260;58243;-70
2023/07/15 04:46:24;;;;;;;8.00;1.90;;;;;;;17.71;78.54;99897.28;108949;1258;73079;-68
2023/07/15 04:49:12;;;;;;;6.40;2.30;;;;;;;18.00;77.19;99896.99;108999;1259;67844;-65
2023/07/15 04:52:10;;;;;;;7.00;2.10;;;;;;;18.39;75.72;99896.58;108855;1258;73559;-72
2023/07/15 04:55:05;;;;;;;7.20;2.10;;;;;;;18.83;74.78;99887.05;108926;1259;58417;-68
2023/07/15 04:57:53;;;;;;;8.80;2.10;;;;;;;19.18;73.41;99891.72;109098;1258;60284;-71
2023/07/15 05:00:42;;;;;;;8.50;2.10;;;;;;;19.78;70.75;99891.97;109074;1258;72803;-64
2023/07/15 05:03:32;;;;;;;6.30;2.00;;;;;;;20.36;68.70;99887.63;108983;1258;67897;-67
2023/07/15 05:06:21;;;;;;;6.70;1.90;;;;;;;20.92;65.18;99888.33;108795;1258;72866;-68
2023/07/15 05:09:10;;;;;;;6.30;1.70;;;;;;;21.41;62.78;99886.16;108954;1258;57838;-65
2023/07/15 05:12:00;;;;;;;7.60;1.70;;;;;;;21.95;61.76;99886.25;108954;1258;58947;-66
2023/07/15 05:14:49;;;;;;;6.20;1.50;;;;;;;22.42;60.28;99883.17;108907;1259;72794;-69
2023/07/15 05:17:37;;;;;;;6.60;1.80;;;;;;;22.92;58.39;99877.39;109021;1258;68090;-64
2023/07/15 05:20:25;;;;;;;6.90;1.50;;;;;;;23.23;55.69;99882.20;108964;1258;73452;-68
2023/07/15 05:23:24;;;;;;;6.90;1.70;;;;;;;23.57;55.88;99881.80;108863;1257;58517;-66
2023/07/15 05:26:15;;;;;;;6.70;1.80;;;;;;;24.13;54.30;99884.90;108953;1258;58937;-68
2023/07/15 05:29:07;;;;;;;6.60;1.80;;;;;;;24.63;51.99;99879.56;109013;1258;72839;-69
2023/07/15 05:31:55;;;;;;;6.20;1.60;;;;;;;24.95;50.07;99876.14;109101;1258;66209;-66
2023/07/15 05:34:44;;;;;;;6.60;1.90;;;;;;;25.35;49.86;99875.51;108831;1258;72581;-67
2023/07/15 05:37:32;;;;;;;6.80;1.70;;;;;;;25.63;48.63;99873.75;108973;1258;58889;-66
2023/07/15 05:40:20;;;;;;;7.60;1.80;;;;;;;25.88;48.42;99872.13;108951;1259;59463;-65
2023/07/15 05:43:08;;;;;;;5.90;1.80;;;;;;;26.12;46.45;99878.12;109037;1258;72963;-69
2023/07/15 05:45:56;;;;;;;7.70;1.90;;;;;;;26.29;45.38;99878.15;108996;1258;66382;-66
2023/07/15 05:48:44;;;;;;;6.90;1.90;;;;;;;26.57;44.19;99873.23;108900;1258;72668;-68
2023/07/15 05:51:36;;;;;;;6.30;1.80;;;;;;;26.77;43.34;99868.88;108875;1258;57414;-69
2023/07/15 05:54:25;;;;;;;6.10;1.70;;;;;;;27.09;42.75;99868.31;108942;1259;61365;-69
2023/07/15 05:57:15;;;;;;;7.60;2.20;;;;;;;27.45;42.48;99871.67;108972;1259;72100;-66
2023/07/15 06:00:11;;;;;;;6.20;1.80;;;;;;;27.88;41.56;99870.27;108999;1258;67980;-67
2023/07/15 06:03:00;;;;;;;7.00;1.70;;;;;;;28.04;40.45;99870.42;108906;1259;71570;-77
2023/07/15 06:05:47;;;;;;;6.30;1.50;;;;;;;28.34;38.63;99873.38;108882;1258;57743;-75
2023/07/15 06:08:36;;;;;;;6.60;2.10;;;;;;;28.79;37.66;99875.83;108986;1259;59271;-74
2023/07/15 06:11:23;;;;;;;7.10;1.60;;;;;;;29.41;36.93;99874.13;108765;1257;73075;-76
2023/07/15 06:14:12;;;;;;;5.80;1.60;;;;;;;30.00;35.25;99870.30;109003;1257;67929;-75
2023/07/15 06:17:00;;;;;;;7.20;1.70;;;;;;;30.56;34.57;99870.18;108983;1257;72757;-74
2023/07/15 06:19:48;;;;;;;7.10;1.50;;;;;;;31.21;33.92;99866.43;109125;1258;57339;-76
2023/07/15 06:22:36;;;;;;;7.30;1.90;;;;;;;31.72;32.82;99867.85;109003;1258;60627;-76
2023/07/15 06:25:26;;;;;;;5.50;1.40;;;;;;;31.99;32.23;99873.86;108973;1258;71917;-74
2023/07/15 06:28:14;;;;;;;6.00;1.70;;;;;;;32.42;31.75;99871.88;108998;1257;67513;-75
2023/07/15 06:31:09;;;;;;;6.60;1.70;;;;;;;32.86;30.92;99868.19;108975;1257;73655;-75
2023/07/15 06:34:00;;;;;;;9.90;1.80;;;;;;;33.26;30.21;99860.53;108935;1257;57419;-76
2023/07/15 06:36:48;;;;;;;5.70;1.50;;;;;;;33.39;29.52;99864.40;109003;1258;60238;-72
2023/07/15 06:39:38;;;;;;;5.60;1.60;;;;;;;33.53;29.54;99864.50;109014;1257;73092;-76
2023/07/15 06:42:26;;;;;;;6.70;1.80;;;;;;;33.70;28.90;99854.35;109051;1257;66507;-75
2023/07/15 06:45:23;;;;;;;6.00;1.50;;;;;;;33.86;28.40;99859.95;108980;1257;71462;-72
2023/07/15 06:48:12;;;;;;;5.50;1.40;;;;;;;33.98;27.95;99862.46;108960;1259;57440;-74
2023/07/15 06:51:02;;;;;;;5.80;1.30;;;;;;;34.14;26.92;99865.17;108901;1258;58870;-75
2023/07/15 06:53:50;;;;;;;6.50;1.70;;;;;;;34.05;26.66;99858.36;109045;1258;72788;-76
2023/07/15 06:56:37;;;;;;;5.40;1.30;;;;;;;33.72;27.13;99853.00;109019;1259;67565;-76
2023/07/15 06:59:25;;;;;;;6.00;1.50;;;;;;;33.50;27.76;99854.09;108995;1259;72661;-75
2023/07/15 07:02:14;;;;;;;5.40;1.60;;;;;;;32.91;28.08;99855.45;108908;1258;57999;-77
2023/07/15 07:05:02;;;;;;;6.20;1.50;;;;;;;32.55;28.73;99854.52;109028;1258;60462;-75
2023/07/15 07:07:49;;;;;;;7.20;1.50;;;;;;;32.47;28.69;99852.40;108976;1259;71410;-74
2023/07/15 07:10:37;;;;;;;6.60;1.70;;;;;;;32.95;27.19;99850.77;109038;1259;67752;-74
2023/07/15 07:13:25;;;;;;;6.60;1.70;;;;;;;33.49;26.84;99846.58;108927;1258;72779;-78
2023/07/15 07:16:16;;;;;;;6.90;1.70;;;;;;;33.82;25.57;99846.06;108965;1258;58025;-76
2023/07/15 07:19:03;;;;;;;6.60;1.60;;;;;;;34.06;25.46;99841.91;109057;1257;60178;-74
2023/07/15 07:21:53;;;;;;;8.70;1.90;;;;;;;34.46;24.92;99832.48;109037;1257;74057;-75
2023/07/15 07:24:40;;;;;;;7.60;1.60;;;;;;;34.82;24.49;99835.44;109088;1257;67881;-76
2023/07/15 07:27:28;;;;;;;7.00;2.00;;;;;;;35.36;24.29;99840.13;109069;1257;73738;-75
2023/07/15 07:30:17;;;;;;;7.10;1.80;;;;;;;36.10;23.40;99840.05;109079;1257;57304;-74
2023/07/15 07:33:07;;;;;;;6.00;1.60;;;;;;;36.66;22.10;99846.39;109120;1259;58964;-76
2023/07/15 07:35:55;;;;;;;6.50;1.70;;;;;;;36.53;21.88;99836.48;108940;1257;73145;-77
2023/07/15 07:38:44;;;;;;;5.30;1.30;;;;;;;36.17;21.86;99830.90;109009;1257;68696;-76
2023/07/15 07:41:32;;;;;;;6.90;1.60;;;;;;;35.62;22.26;99825.91;109213;1257;72900;-75
2023/07/15 07:44:22;;;;;;;6.80;1.70;;;;;;;35.10;23.07;99817.94;108974;1257;57675;-77
2023/07/15 07:47:11;;;;;;;7.60;1.60;;;;;;;35.27;22.85;99815.36;109052;1257;60297;-79
2023/07/15 07:50:00;;;;;;;6.30;1.50;;;;;;;35.07;22.99;99813.42;109075;1257;72874;-75
2023/07/15 07:52:50;;;;;;;7.80;1.60;;;;;;;34.75;23.08;99808.55;109223;1257;66272;-76
2023/07/15 07:55:39;;;;;;;6.90;1.70;;;;;;;33.65;23.83;99808.93;109040;1257;71496;-75
2023/07/15 07:58:26;;;;;;;6.50;1.70;;;;;;;32.51;25.60;99813.53;109069;1257;57450;-77
2023/07/15 08:01:15;;;;;;;5.30;1.60;;;;;;;31.42;27.00;99809.03;109084;1257;58901;-77
2023/07/15 08:04:03;;;;;;;7.10;1.60;;;;;;;31.54;26.70;99802.48;109068;1259;71506;-77
2023/07/15 08:06:53;;;;;;;7.10;1.80;;;;;;;31.40;26.96;99799.15;109078;1258;66552;-80
2023/07/15 08:09:42;;;;;;;7.00;2.10;;;;;;;31.67;27.28;99796.34;109052;1258;72656;-80
2023/07/15 08:12:31;;;;;;;7.30;2.00;;;;;;;33.00;26.78;99793.18;109182;1258;57696;-79
2023/07/15 08:15:21;;;;;;;9.80;2.30;;;;;;;34.38;25.03;99801.41;108937;1258;58764;-80
2023/07/15 08:18:09;;;;;;;5.50;1.90;;;;;;;35.26;23.37;99800.33;109037;1260;73000;-77
2023/07/15 08:20:57;;;;;;;6.50;1.70;;;;;;;35.24;23.45;99801.36;109023;1258;68072;-77
2023/07/15 08:24:13;;;;;;;6.10;1.60;;;;;;;35.68;22.83;99806.48;109234;1257;75284;-78
2023/07/15 08:27:02;;;;;;;6.40;1.50;;;;;;;35.64;22.61;99801.36;109194;1257;58130;-76
2023/07/15 08:29:51;;;;;;;7.30;1.80;;;;;;;35.55;24.34;99797.96;109059;1264;58722;-79
2023/07/15 08:32:43;;;;;;;7.00;1.90;;;;;;;35.50;23.24;99798.14;109057;1257;73551;-81
2023/07/15 08:35:34;;;;;;;5.90;1.80;;;;;;;35.89;23.57;99798.60;109120;1257;66870;-79
2023/07/15 08:38:22;;;;;;;8.30;1.90;;;;;;;36.57;23.82;99796.41;109103;1260;71399;-78
2023/07/15 08:41:10;;;;;;;7.90;1.90;;;;;;;36.85;23.78;99793.30;109103;1257;57987;-78
2023/07/15 08:43:59;;;;;;;6.40;1.70;;;;;;;37.17;23.73;99794.16;109147;1257;61034;-78
2023/07/15 08:46:48;;;;;;;7.90;1.80;;;;;;;37.65;23.87;99790.48;109048;1258;73077;-79
2023/07/15 08:49:38;;;;;;;7.50;1.90;;;;;;;38.09;22.81;99792.95;109111;1259;66325;-76
2023/07/15 08:52:30;;;;;;;9.60;2.20;;;;;;;38.35;22.97;99788.69;109087;1257;72809;-76
2023/07/15 08:55:18;;;;;;;8.60;2.00;;;;;;;38.44;23.09;99787.44;109024;1257;57746;-76
2023/07/15 08:58:07;;;;;;;6.40;1.90;;;;;;;38.32;22.93;99778.27;109085;1257;58716;-77
2023/07/15 09:00:55;;;;;;;5.80;1.80;;;;;;;38.37;22.88;99776.16;109029;1257;72901;-75
2023/07/15 09:03:44;;;;;;;7.70;1.60;;;;;;;38.61;22.70;99781.70;109027;1257;68353;-75
2023/07/15 09:06:32;;;;;;;7.50;1.70;;;;;;;38.78;22.37;99792.13;109065;1257;71384;-77
2023/07/15 09:09:34;;;;;;;6.60;1.80;;;;;;;38.98;22.90;99791.74;109047;1257;58737;-75
2023/07/15 09:12:23;;;;;;;9.80;1.80;;;;;;;39.09;21.98;99786.73;109050;1257;59048;-77
2023/07/15 09:15:16;;;;;;;7.00;1.60;;;;;;;39.13;22.33;99784.79;109155;1257;71591;-77
2023/07/15 09:18:07;;;;;;;7.70;1.60;;;;;;;39.09;21.94;99781.55;109083;1257;66515;-76
2023/07/15 09:21:10;;;;;;;7.20;1.60;;;;;;;39.08;22.14;99783.23;108969;1258;71451;-77
2023/07/15 09:24:02;;;;;;;8.60;1.90;;;;;;;39.27;22.32;99782.51;109024;1258;57327;-78
2023/07/15 09:26:56;;;;;;;8.80;1.50;;;;;;;39.21;21.72;99783.34;108903;1259;61201;-77
2023/07/15 09:29:49;;;;;;;8.00;2.80;;;;;;;38.60;21.40;99782.11;108986;1259;72824;-77
2023/07/15 09:32:37;;;;;;;7.90;2.00;;;;;;;38.22;20.88;99779.92;108979;1258;67849;-75
2023/07/15 09:35:37;;;;;;;6.80;1.70;;;;;;;37.66;20.02;99779.14;109096;1258;72464;-80
2023/07/15 09:38:31;;;;;;;7.30;1.70;;;;;;;37.30;21.50;99773.25;109017;1259;59025;-75
2023/07/15 09:41:21;;;;;;;6.50;1.80;;;;;;;37.39;23.61;99763.06;109011;1258;59242;-76
2023/07/15 09:44:14;;;;;;;7.30;1.90;;;;;;;37.66;22.64;99757.16;108936;1258;74191;-77
2023/07/15 09:47:07;;;;;;;7.40;1.90;;;;;;;38.04;22.46;99750.97;109035;1259;66447;-77
2023/07/15 09:49:56;;;;;;;7.40;1.70;;;;;;;38.29;22.53;99748.83;109118;1259;71731;-76
2023/07/15 09:52:44;;;;;;;7.60;1.90;;;;;;;38.50;22.63;99746.78;109078;1258;57286;-77
2023/07/15 09:55:36;;;;;;;5.80;1.40;;;;;;;38.58;21.93;99739.92;108896;1258;60606;-74
2023/07/15 09:58:32;;;;;;;8.10;2.30;;;;;;;38.35;22.33;99741.41;108822;1262;73793;-76
2023/07/15 10:01:47;;;;;;;7.40;1.90;;;;;;;38.15;22.57;99737.23;108806;1262;67736;-78
2023/07/15 10:04:43;;;;;;;6.10;1.60;;;;;;;37.77;22.84;99730.68;108643;1262;73826;-75
2023/07/15 10:07:32;;;;;;;7.60;1.60;;;;;;;37.60;22.86;99725.09;108812;1262;57529;-76
2023/07/15 10:10:23;;;;;;;6.20;1.80;;;;;;;37.50;23.00;99717.73;108781;1262;59156;-75
2023/07/15 10:13:13;;;;;;;8.10;1.80;;;;;;;37.66;23.00;99719.82;108889;1262;74235;-71
2023/07/15 10:16:03;;;;;;;5.20;1.50;;;;;;;37.54;23.00;99732.37;108760;1262;67999;-74
2023/07/15 10:18:51;;;;;;;7.50;2.20;;;;;;;37.59;22.91;99734.20;108685;1262;71486;-72
2023/07/15 10:21:48;;;;;;;6.40;1.60;;;;;;;37.54;23.09;99732.96;108866;1262;57440;-74
2023/07/15 10:24:43;;;;;;;6.50;1.60;;;;;;;37.86;23.32;99740.78;108840;1262;61443;-73
2023/07/15 10:27:32;;;;;;;6.20;1.70;;;;;;;38.11;22.66;99742.36;108792;1262;72732;-75
2023/07/15 10:30:24;;;;;;;7.50;1.70;;;;;;;38.13;22.79;99740.55;109038;1257;68222;-73
2023/07/15 10:33:23;;;;;;;7.00;1.70;;;;;;;38.16;22.92;99738.36;109023;1258;71117;-73
2023/07/15 10:36:11;;;;;;;6.70;1.70;;;;;;;38.42;22.74;99731.52;109006;1257;58138;-76
2023/07/15 10:39:10;;;;;;;6.80;1.50;;;;;;;38.79;22.10;99722.92;108960;1259;60312;-73
2023/07/15 10:42:07;;;;;;;6.70;1.90;;;;;;;38.79;21.83;99717.83;108984;1259;73926;-73
2023/07/15 10:44:56;;;;;;;6.80;1.50;;;;;;;39.10;21.80;99719.95;108870;1259;67827;-75
2023/07/15 10:47:47;;;;;;;7.80;1.60;;;;;;;39.24;21.35;99713.65;109015;1259;72310;-74
2023/07/15 10:50:37;;;;;;;6.00;1.70;;;;;;;38.98;21.35;99714.30;108977;1259;58022;-76
2023/07/15 10:53:29;;;;;;;7.00;1.60;;;;;;;39.10;21.70;99705.21;109042;1259;59445;-77
2023/07/15 10:56:17;;;;;;;5.60;1.60;;;;;;;39.30;22.11;99698.91;109024;1259;71804;-76
2023/07/15 10:59:08;;;;;;;5.80;1.50;;;;;;;39.57;22.18;99700.43;108842;1259;66351;-77
2023/07/15 11:02:00;;;;;;;6.50;1.60;;;;;;;39.75;21.24;99706.63;108939;1259;71369;-78
2023/07/15 11:04:51;;;;;;;7.70;1.70;;;;;;;39.17;21.10;99702.40;108899;1263;57446;-80
2023/07/15 11:07:43;;;;;;;6.70;1.40;;;;;;;38.87;21.95;99696.31;108739;1263;60114;-75
2023/07/15 11:10:34;;;;;;;6.40;1.60;;;;;;;38.82;21.44;99686.94;108801;1262;72745;-79
2023/07/15 11:13:27;;;;;;;5.40;1.30;;;;;;;38.85;21.34;99687.50;108769;1263;69485;-72
2023/07/15 11:16:36;;;;;;;6.30;1.40;;;;;;;38.61;21.19;99690.66;108817;1262;72514;-78
2023/07/15 11:19:32;;;;;;;6.80;1.80;;;;;;;38.20;22.00;99687.84;108674;1262;58288;-76
2023/07/15 11:22:27;;;;;;;6.50;2.00;;;;;;;37.36;22.60;99686.21;108899;1266;59997;-79
2023/07/15 11:25:29;;;;;;;7.90;1.50;;;;;;;36.78;23.41;99675.11;108800;1262;74116;-77
2023/07/15 11:28:20;;;;;;;5.80;1.60;;;;;;;36.36;23.34;99676.05;108806;1262;68071;-77
2023/07/15 11:31:11;;;;;;;6.30;1.60;;;;;;;35.96;24.06;99676.69;108718;1262;71252;-80
2023/07/15 11:34:09;;;;;;;6.10;1.50;;;;;;;35.38;24.92;99681.53;108745;1262;57998;-74
2023/07/15 11:37:02;;;;;;;6.70;1.70;;;;;;;35.10;26.20;99678.39;108803;1261;59121;-75
2023/07/15 11:39:58;;;;;;;7.30;1.90;;;;;;;34.83;26.88;99679.18;109006;1258;71865;-74
2023/07/15 11:42:56;;;;;;;6.50;1.60;;;;;;;34.32;27.48;99680.84;108946;1257;67898;-78
2023/07/15 11:45:57;;;;;;;6.90;1.80;;;;;;;33.91;27.89;99672.17;109031;1257;73807;-78
2023/07/15 11:48:46;;;;;;;6.70;1.80;;;;;;;33.39;28.58;99662.02;108886;1258;57336;-76
2023/07/15 11:51:41;;;;;;;6.90;2.30;;;;;;;32.79;28.48;99662.65;109108;1260;61337;-78
2023/07/15 11:54:34;;;;;;;6.80;1.90;;;;;;;32.13;29.93;99653.12;109076;1257;73104;-75
2023/07/15 11:57:28;;;;;;;6.80;2.30;;;;;;;31.75;30.62;99654.55;108988;1257;68187;-79
2023/07/15 12:00:32;;;;;;;7.40;2.20;;;;;;;31.26;31.97;99657.02;109120;1257;71745;-76
2023/07/15 12:03:37;;;;;;;6.60;2.20;;;;;;;30.39;33.27;99644.86;108839;1262;57797;-72
2023/07/15 12:06:28;;;;;;;6.50;1.90;;;;;;;29.96;33.82;99651.17;108705;1262;61896;-72
2023/07/15 12:09:18;;;;;;;6.90;2.00;;;;;;;29.60;34.89;99649.80;108764;1262;73150;-72
2023/07/15 12:12:07;;;;;;;7.60;2.10;;;;;;;29.34;35.28;99650.03;108743;1262;66399;-73
2023/07/15 12:14:55;;;;;;;10.20;2.30;;;;;;;29.07;35.68;99654.99;108582;1262;71464;-76
2023/07/15 12:17:46;;;;;;;7.80;2.10;;;;;;;28.73;36.14;99651.73;108831;1263;57678;-72
2023/07/15 12:20:39;;;;;;;8.00;2.50;;;;;;;28.50;36.99;99650.46;108687;1262;58945;-74
2023/07/15 12:23:34;;;;;;;7.10;2.20;;;;;;;28.43;37.45;99650.23;108669;1262;71778;-76
2023/07/15 12:26:40;;;;;;;7.00;2.40;;;;;;;28.22;37.45;99636.84;108689;1262;66550;-72
2023/07/15 12:29:55;;;;;;;7.10;2.00;;;;;;;28.04;38.38;99652.10;108399;1262;73139;-73
2023/07/15 12:32:53;;;;;;;6.20;2.00;;;;;;;27.87;38.22;99657.50;108603;1262;57319;-71
2023/07/15 12:35:41;;;;;;;8.20;2.20;;;;;;;27.71;38.37;99656.84;108939;1259;58714;-70
2023/07/15 12:38:29;;;;;;;6.00;2.00;;;;;;;27.58;39.14;99666.00;109049;1259;71615;-72
2023/07/15 12:41:18;;;;;;;6.90;2.40;;;;;;;27.43;39.78;99666.21;108963;1258;68156;-69
2023/07/15 12:44:06;;;;;;;7.00;2.30;;;;;;;27.33;39.93;99659.73;109017;1258;71127;-72
2023/07/15 12:46:54;;;;;;;6.70;2.00;;;;;;;27.29;40.59;99655.11;108990;1259;57808;-70
2023/07/15 12:49:42;;;;;;;7.00;2.40;;;;;;;27.27;39.90;99646.61;108982;1259;60048;-73
2023/07/15 12:52:29;;;;;;;7.20;1.90;;;;;;;27.23;39.40;99643.80;109049;1259;72711;-74
2023/07/15 12:55:20;;;;;;;8.40;2.90;;;;;;;27.16;39.12;99646.53;108878;1258;66418;-72
2023/07/15 12:58:10;;;;;;;7.10;2.20;;;;;;;27.11;39.70;99645.11;108890;1259;71423;-71
2023/07/15 13:01:02;;;;;;;8.20;2.40;;;;;;;27.12;39.39;99644.09;108915;1259;58293;-73
2023/07/15 13:03:51;;;;;;;7.00;2.40;;;;;;;27.16;39.39;99647.28;108998;1259;59085;-74
2023/07/15 13:06:39;;;;;;;6.70;2.20;;;;;;;27.16;38.99;99648.08;108899;1261;72996;-75
2023/07/15 13:09:27;;;;;;;7.60;2.40;;;;;;;27.14;39.45;99645.14;108857;1259;67968;-75
2023/07/15 13:12:15;;;;;;;8.00;2.10;;;;;;;27.07;38.69;99639.94;108852;1259;72791;-71
2023/07/15 13:15:04;;;;;;;6.20;2.10;;;;;;;27.02;39.59;99638.15;108942;1259;57324;-73
2023/07/15 13:17:54;;;;;;;8.30;2.20;;;;;;;26.99;39.37;99643.02;108926;1262;59124;-70